createdAt,value
2022-09-27T00:01:12.830Z,97811.72
2022-09-27T00:03:40.805Z,97806.31
2022-09-27T00:06:32.908Z,97790.31
2022-09-27T00:09:00.769Z,97808.72
2022-09-27T00:11:34.964Z,97811.22
2022-09-27T00:14:03.246Z,97817.13
2022-09-27T00:16:33.903Z,97806.25
2022-09-27T00:19:04.559Z,97816.47
2022-09-27T00:21:32.398Z,97821.50
2022-09-27T00:24:00.558Z,97807.75
2022-09-27T00:26:28.298Z,97814.34
2022-09-27T00:28:56.476Z,97813.88
2022-09-27T00:31:32.410Z,97817.88
2022-09-27T00:34:02.566Z,97824.06
2022-09-27T00:36:31.653Z,97815.13
2022-09-27T00:39:01.239Z,97824.47
2022-09-27T00:41:33.824Z,97824.69
2022-09-27T00:44:22.493Z,97830.81
2022-09-27T00:47:03.081Z,97831.56
2022-09-27T00:49:48.535Z,97833.53
2022-09-27T00:52:24.713Z,97842.25
2022-09-27T00:54:59.022Z,97815.41
2022-09-27T00:57:26.669Z,97833.88
2022-09-27T01:00:02.138Z,97841.06
2022-09-27T01:02:33.504Z,97833.69
2022-09-27T01:05:01.702Z,97838.69
2022-09-27T01:07:30.416Z,97841.78
2022-09-27T01:09:58.946Z,97840.34
2022-09-27T01:12:26.380Z,97844.31
2022-09-27T01:15:05.994Z,97855.31
2022-09-27T01:18:07.445Z,97855.19
2022-09-27T01:20:50.075Z,97867.63
2022-09-27T01:23:56.668Z,97859.50
2022-09-27T01:26:43.019Z,97864.63
2022-09-27T01:29:20.620Z,97870.78
2022-09-27T01:32:00.632Z,97868.38
2022-09-27T01:34:50.933Z,97870.00
2022-09-27T01:37:40.462Z,97868.81
2022-09-27T01:40:25.333Z,97870.59
2022-09-27T01:43:22.970Z,97870.97
2022-09-27T01:46:03.032Z,97876.16
2022-09-27T01:48:51.042Z,97889.78
2022-09-27T01:51:32.072Z,97868.06
2022-09-27T01:54:04.393Z,97883.59
2022-09-27T01:57:11.132Z,97883.72
2022-09-27T01:59:59.633Z,97879.47
2022-09-27T02:03:17.833Z,97893.44
2022-09-27T02:06:12.887Z,97892.03
2022-09-27T02:08:59.749Z,97905.78
2022-09-27T02:11:58.337Z,97913.69
2022-09-27T02:14:35.327Z,97919.78
2022-09-27T02:17:17.388Z,97907.97
2022-09-27T02:20:13.992Z,97908.88
2022-09-27T02:23:15.505Z,97916.03
2022-09-27T02:25:46.313Z,97916.75
2022-09-27T02:28:29.162Z,97915.00
2022-09-27T02:30:57.211Z,97930.34
2022-09-27T02:34:03.030Z,97921.59
2022-09-27T02:36:31.986Z,97929.53
2022-09-27T02:39:00.503Z,97925.59
2022-09-27T02:41:30.122Z,97920.75
2022-09-27T02:44:02.899Z,97928.88
2022-09-27T02:46:31.960Z,97933.44
2022-09-27T02:49:20.750Z,97942.19
2022-09-27T02:52:09.432Z,97937.84
2022-09-27T02:54:52.068Z,97940.69
2022-09-27T02:57:55.627Z,97941.19
2022-09-27T03:01:00.424Z,97941.00
2022-09-27T03:03:50.013Z,97946.50
2022-09-27T03:06:20.827Z,97947.41
2022-09-27T03:08:48.875Z,97947.06
2022-09-27T03:11:16.601Z,97952.41
2022-09-27T03:14:01.818Z,97951.00
2022-09-27T03:16:33.551Z,97954.00
2022-09-27T03:19:25.097Z,97959.19
2022-09-27T03:22:24.931Z,97964.81
2022-09-27T03:24:53.082Z,97963.38
2022-09-27T03:27:20.561Z,97968.25
2022-09-27T03:29:48.066Z,97969.38
2022-09-27T03:32:16.509Z,97973.44
2022-09-27T03:35:02.526Z,97971.28
2022-09-27T03:37:30.150Z,97976.78
2022-09-27T03:39:57.796Z,97979.84
2022-09-27T03:42:25.558Z,97982.47
2022-09-27T03:44:54.103Z,97978.78
2022-09-27T03:47:22.579Z,97984.06
2022-09-27T03:49:50.180Z,97987.03
2022-09-27T03:52:18.799Z,98001.66
2022-09-27T03:54:46.532Z,98006.69
2022-09-27T03:57:14.559Z,98006.38
2022-09-27T03:59:41.995Z,98013.47
2022-09-27T04:02:44.847Z,98010.91
2022-09-27T04:05:26.891Z,98026.03
2022-09-27T04:08:01.110Z,98019.34
2022-09-27T04:10:31.222Z,98016.34
2022-09-27T04:12:59.211Z,98020.97
2022-09-27T04:15:31.073Z,98029.91
2022-09-27T04:18:16.371Z,98037.75
2022-09-27T04:21:04.137Z,98029.50
2022-09-27T04:23:34.079Z,98035.09
2022-09-27T04:26:01.774Z,98033.75
2022-09-27T04:28:54.552Z,98038.88
2022-09-27T04:31:23.352Z,98048.31
2022-09-27T04:33:55.107Z,98043.72
2022-09-27T04:36:27.824Z,98046.97
2022-09-27T04:39:16.860Z,98040.59
2022-09-27T04:41:45.803Z,98033.94
2022-09-27T04:44:13.754Z,98043.41
2022-09-27T04:46:46.954Z,98046.53
2022-09-27T04:49:17.595Z,98054.59
2022-09-27T04:51:45.873Z,98058.47
2022-09-27T04:54:13.270Z,98066.97
2022-09-27T04:56:52.091Z,98061.41
2022-09-27T04:59:20.389Z,98062.31
2022-09-27T05:01:48.125Z,98065.63
2022-09-27T05:04:37.531Z,98063.41
2022-09-27T05:07:07.180Z,98068.09
2022-09-27T05:09:43.029Z,98070.03
2022-09-27T05:12:10.590Z,98067.34
2022-09-27T05:14:47.502Z,98079.75
2022-09-27T05:17:34.363Z,98070.59
2022-09-27T05:20:20.764Z,98073.59
2022-09-27T05:22:59.294Z,98079.75
2022-09-27T05:25:27.381Z,98084.13
2022-09-27T05:27:54.875Z,98080.53
2022-09-27T05:30:22.408Z,98090.38
2022-09-27T05:32:58.873Z,98086.72
2022-09-27T05:35:26.451Z,98073.84
2022-09-27T05:38:00.546Z,98100.63
2022-09-27T05:40:46.347Z,98098.94
2022-09-27T05:43:14.658Z,98086.88
2022-09-27T05:45:43.709Z,98104.13
2022-09-27T05:48:14.457Z,98103.13
2022-09-27T05:51:08.181Z,98102.47
2022-09-27T05:53:39.493Z,98099.56
2022-09-27T05:56:12.683Z,98103.47
2022-09-27T05:59:00.368Z,98103.94
2022-09-27T06:01:36.538Z,98106.16
2022-09-27T06:04:36.498Z,98106.84
2022-09-27T06:07:32.351Z,98104.59
2022-09-27T06:10:01.675Z,98104.38
2022-09-27T06:12:31.327Z,98104.59
2022-09-27T06:15:00.137Z,98107.09
2022-09-27T06:17:36.147Z,98102.47
2022-09-27T06:20:11.546Z,98111.00
2022-09-27T06:22:39.668Z,98108.06
2022-09-27T06:25:08.350Z,98106.41
2022-09-27T06:27:43.893Z,98100.56
2022-09-27T06:30:20.909Z,98102.63
2022-09-27T06:33:00.766Z,98111.56
2022-09-27T06:35:50.975Z,98100.00
2022-09-27T06:38:20.154Z,98104.16
2022-09-27T06:41:03.560Z,98118.63
2022-09-27T06:43:39.431Z,98101.59
2022-09-27T06:46:32.714Z,98103.94
2022-09-27T06:49:12.381Z,98103.72
2022-09-27T06:51:41.339Z,98106.19
2022-09-27T06:54:09.120Z,98114.81
2022-09-27T06:56:37.470Z,98108.75
2022-09-27T06:59:23.169Z,98116.94
2022-09-27T07:01:53.144Z,98117.16
2022-09-27T07:04:38.954Z,98105.72
2022-09-27T07:07:14.712Z,98107.31
2022-09-27T07:09:46.096Z,98110.31
2022-09-27T07:12:14.204Z,98123.09
2022-09-27T07:14:43.060Z,98119.63
2022-09-27T07:17:16.416Z,98127.91
2022-09-27T07:19:49.301Z,98120.84
2022-09-27T07:22:16.818Z,98125.75
2022-09-27T07:24:48.019Z,98131.03
2022-09-27T07:27:16.485Z,98128.56
2022-09-27T07:29:43.857Z,98128.00
2022-09-27T07:32:11.399Z,98124.59
2022-09-27T07:34:39.755Z,98120.47
2022-09-27T07:37:07.894Z,98129.66
2022-09-27T07:39:39.552Z,98138.13
2022-09-27T07:42:07.117Z,98140.81
2022-09-27T07:44:38.116Z,98135.06
2022-09-27T07:47:19.814Z,98136.72
2022-09-27T07:50:13.180Z,98139.78
2022-09-27T07:52:48.635Z,98148.16
2022-09-27T07:55:30.057Z,98138.75
2022-09-27T07:58:07.455Z,98152.34
2022-09-27T08:00:37.423Z,98153.25
2022-09-27T08:03:08.658Z,98157.50
2022-09-27T08:05:37.240Z,98151.03
2022-09-27T08:08:05.704Z,98152.59
2022-09-27T08:10:34.809Z,98153.50
2022-09-27T08:13:05.070Z,98153.16
2022-09-27T08:15:33.792Z,98156.28
2022-09-27T08:18:02.670Z,98153.59
2022-09-27T08:21:00.910Z,98156.28
2022-09-27T08:23:46.971Z,98157.31
2022-09-27T08:26:22.472Z,98149.00
2022-09-27T08:29:13.038Z,98160.44
2022-09-27T08:31:51.629Z,98161.13
2022-09-27T08:34:20.051Z,98152.97
2022-09-27T08:36:47.750Z,98154.66
2022-09-27T08:39:15.730Z,98150.53
2022-09-27T08:42:03.074Z,98148.06
2022-09-27T08:45:12.065Z,98158.75
2022-09-27T08:47:52.868Z,98160.88
2022-09-27T08:50:39.675Z,98159.91
2022-09-27T08:53:15.227Z,98160.06
2022-09-27T08:55:48.398Z,98163.16
2022-09-27T08:58:36.237Z,98163.09
2022-09-27T09:01:16.975Z,98165.19
2022-09-27T09:04:00.007Z,98177.50
2022-09-27T09:06:40.215Z,98168.41
2022-09-27T09:10:09.409Z,98170.84
2022-09-27T09:13:01.299Z,98164.16
2022-09-27T09:16:11.612Z,98171.66
2022-09-27T09:19:05.501Z,98177.97
2022-09-27T09:22:09.364Z,98181.34
2022-09-27T09:24:46.611Z,98185.06
2022-09-27T09:27:42.243Z,98180.03
2022-09-27T09:30:22.653Z,98187.75
2022-09-27T09:33:16.766Z,98192.44
2022-09-27T09:35:59.374Z,98194.06
2022-09-27T09:38:40.850Z,98198.44
2022-09-27T09:41:28.054Z,98204.81
2022-09-27T09:44:22.212Z,98210.09
2022-09-27T09:46:56.163Z,98200.09
2022-09-27T09:49:33.067Z,98212.19
2022-09-27T09:52:09.095Z,98210.03
2022-09-27T09:55:02.580Z,98205.97
2022-09-27T09:58:04.604Z,98203.22
2022-09-27T10:00:42.447Z,98211.78
2022-09-27T10:03:10.464Z,98204.94
2022-09-27T10:05:38.492Z,98207.28
2022-09-27T10:08:23.208Z,98195.19
2022-09-27T10:11:05.209Z,98216.25
2022-09-27T10:13:48.543Z,98209.03
2022-09-27T10:16:20.779Z,98207.13
2022-09-27T10:18:51.246Z,98202.34
2022-09-27T10:21:26.158Z,98206.34
2022-09-27T10:24:17.738Z,98210.06
2022-09-27T10:27:07.099Z,98204.06
2022-09-27T10:29:39.361Z,98217.16
2022-09-27T10:32:44.925Z,98217.13
2022-09-27T10:35:40.131Z,98226.84
2022-09-27T10:38:19.320Z,98225.44
2022-09-27T10:40:52.588Z,98225.94
2022-09-27T10:43:36.124Z,98210.28
2022-09-27T10:46:33.185Z,98225.88
2022-09-27T10:49:32.987Z,98226.53
2022-09-27T10:52:24.434Z,98226.41
2022-09-27T10:55:06.082Z,98220.38
2022-09-27T10:57:34.380Z,98225.91
2022-09-27T11:00:08.023Z,98227.72
2022-09-27T11:02:38.085Z,98241.44
2022-09-27T11:05:15.573Z,98230.13
2022-09-27T11:07:54.471Z,98233.34
2022-09-27T11:10:37.606Z,98235.75
2022-09-27T11:13:18.498Z,98242.13
2022-09-27T11:16:09.206Z,98236.19
2022-09-27T11:18:49.182Z,98237.22
2022-09-27T11:21:32.463Z,98234.53
2022-09-27T11:24:48.291Z,98237.31
2022-09-27T11:27:49.930Z,98236.09
2022-09-27T11:30:24.366Z,98243.53
2022-09-27T11:33:37.052Z,98250.56
2022-09-27T11:36:21.843Z,98252.72
2022-09-27T11:39:17.431Z,98253.28
2022-09-27T11:41:59.645Z,98246.22
2022-09-27T11:44:47.806Z,98250.38
2022-09-27T11:47:54.819Z,98261.03
2022-09-27T11:50:32.933Z,98259.16
2022-09-27T11:53:33.830Z,98259.78
2022-09-27T11:56:22.983Z,98266.44
2022-09-27T11:59:05.773Z,98267.91
2022-09-27T12:01:57.204Z,98264.41
2022-09-27T12:04:27.974Z,98266.56
2022-09-27T12:07:03.162Z,98267.13
2022-09-27T12:09:43.735Z,98268.13
2022-09-27T12:12:23.198Z,98270.06
2022-09-27T12:15:14.830Z,98277.66
2022-09-27T12:17:47.087Z,98276.69
2022-09-27T12:20:19.716Z,98284.41
2022-09-27T12:23:03.554Z,98286.84
2022-09-27T12:26:41.372Z,98291.13
2022-09-27T12:29:30.728Z,98288.56
2022-09-27T12:32:31.751Z,98293.94
2022-09-27T12:35:22.222Z,98294.16
2022-09-27T12:38:05.885Z,98287.75
2022-09-27T12:40:39.168Z,98279.69
2022-09-27T12:43:21.958Z,98286.88
2022-09-27T12:46:15.280Z,98289.34
2022-09-27T12:49:05.941Z,98303.78
2022-09-27T12:51:56.133Z,98302.78
2022-09-27T12:54:39.215Z,98290.34
2022-09-27T12:57:36.656Z,98291.34
2022-09-27T13:00:07.241Z,98296.59
2022-09-27T13:03:15.878Z,98290.09
2022-09-27T13:06:06.208Z,98290.34
2022-09-27T13:08:37.087Z,98299.53
2022-09-27T13:11:26.560Z,98302.56
2022-09-27T13:14:00.350Z,98307.25
2022-09-27T13:16:28.757Z,98305.66
2022-09-27T13:19:04.422Z,98305.88
2022-09-27T13:21:50.619Z,98308.81
2022-09-27T13:24:39.715Z,98299.06
2022-09-27T13:27:30.405Z,98315.19
2022-09-27T13:30:08.843Z,98289.63
2022-09-27T13:32:41.140Z,98321.66
2022-09-27T13:35:27.565Z,98314.28
2022-09-27T13:38:24.429Z,98319.56
2022-09-27T13:40:54.253Z,98320.75
2022-09-27T13:43:59.744Z,98324.38
2022-09-27T13:46:53.778Z,98321.91
2022-09-27T13:49:33.882Z,98327.41
2022-09-27T13:52:20.954Z,98341.97
2022-09-27T13:54:59.553Z,98335.31
2022-09-27T13:57:51.996Z,98335.22
2022-09-27T14:00:25.990Z,98339.59
2022-09-27T14:03:00.042Z,98340.88
2022-09-27T14:05:58.695Z,98338.34
2022-09-27T14:08:38.350Z,98336.75
2022-09-27T14:11:13.626Z,98329.56
2022-09-27T14:13:45.614Z,98335.59
2022-09-27T14:16:18.606Z,98335.50
2022-09-27T14:19:01.164Z,98337.03
2022-09-27T14:21:40.326Z,98330.38
2022-09-27T14:24:28.860Z,98336.09
2022-09-27T14:27:23.751Z,98336.69
2022-09-27T14:30:02.997Z,98345.03
2022-09-27T14:32:35.290Z,98354.09
2022-09-27T14:35:37.533Z,98345.97
2022-09-27T14:38:35.987Z,98341.44
2022-09-27T14:41:03.504Z,98340.97
2022-09-27T14:43:34.621Z,98342.41
2022-09-27T14:46:07.350Z,98342.75
2022-09-27T14:48:36.471Z,98336.47
2022-09-27T14:51:08.522Z,98337.91
2022-09-27T14:53:57.430Z,98339.41
2022-09-27T14:56:35.090Z,98332.47
2022-09-27T14:59:14.728Z,98335.94
2022-09-27T15:01:52.508Z,98332.91
2022-09-27T15:04:21.831Z,98330.66
2022-09-27T15:06:50.048Z,98326.38
2022-09-27T15:09:18.883Z,98332.09
2022-09-27T15:11:51.771Z,98337.91
2022-09-27T15:14:21.138Z,98340.00
2022-09-27T15:16:51.231Z,98339.25
2022-09-27T15:19:28.467Z,98345.88
2022-09-27T15:21:57.675Z,98345.28
2022-09-27T15:24:40.447Z,98335.56
2022-09-27T15:27:34.251Z,98341.72
2022-09-27T15:30:01.961Z,98344.56
2022-09-27T15:32:31.399Z,98346.31
2022-09-27T15:35:08.844Z,98339.50
2022-09-27T15:37:38.764Z,98344.31
2022-09-27T15:40:19.273Z,98339.41
2022-09-27T15:42:58.379Z,98355.19
2022-09-27T15:45:34.890Z,98344.97
2022-09-27T15:48:17.198Z,98341.16
2022-09-27T15:50:44.893Z,98346.47
2022-09-27T15:53:32.332Z,98345.38
2022-09-27T15:56:01.475Z,98340.97
2022-09-27T15:58:29.605Z,98349.03
2022-09-27T16:01:05.898Z,98344.47
2022-09-27T16:03:34.613Z,98347.47
2022-09-27T16:06:04.968Z,98342.31
2022-09-27T16:08:32.493Z,98350.63
2022-09-27T16:11:05.896Z,98357.88
2022-09-27T16:13:33.536Z,98361.56
2022-09-27T16:16:03.645Z,98362.28
2022-09-27T16:18:33.101Z,98364.13
2022-09-27T16:21:00.826Z,98352.13
2022-09-27T16:23:28.413Z,98368.94
2022-09-27T16:25:55.925Z,98362.88
2022-09-27T16:28:23.436Z,98376.41
2022-09-27T16:30:51.036Z,98366.25
2022-09-27T16:33:18.763Z,98362.31
2022-09-27T16:35:46.651Z,98366.91
2022-09-27T16:38:14.489Z,98362.53
2022-09-27T16:40:42.174Z,98374.03
2022-09-27T16:43:12.560Z,98369.66
2022-09-27T16:45:40.007Z,98369.78
2022-09-27T16:48:07.444Z,98375.97
2022-09-27T16:50:53.330Z,98372.16
2022-09-27T16:53:20.987Z,98374.97
2022-09-27T16:55:48.431Z,98368.34
2022-09-27T16:58:16.096Z,98369.47
2022-09-27T17:00:44.376Z,98370.25
2022-09-27T17:03:11.846Z,98376.28
2022-09-27T17:05:40.412Z,98376.91
2022-09-27T17:08:08.312Z,98383.75
2022-09-27T17:10:36.103Z,98392.13
2022-09-27T17:13:03.666Z,98394.81
2022-09-27T17:15:31.749Z,98390.88
2022-09-27T17:17:59.337Z,98390.53
2022-09-27T17:20:27.072Z,98392.56
2022-09-27T17:22:54.820Z,98395.91
2022-09-27T17:25:22.454Z,98373.09
2022-09-27T17:27:49.968Z,98398.00
2022-09-27T17:30:17.687Z,98394.97
2022-09-27T17:32:45.173Z,98397.00
2022-09-27T17:35:12.734Z,98393.88
2022-09-27T17:37:40.345Z,98394.47
2022-09-27T17:40:08.344Z,98398.00
2022-09-27T17:42:37.420Z,98395.31
2022-09-27T17:45:05.073Z,98397.19
2022-09-27T17:47:50.873Z,98394.66
2022-09-27T17:50:28.979Z,98404.78
2022-09-27T17:52:58.417Z,98401.94
2022-09-27T17:55:27.326Z,98400.03
2022-09-27T17:57:55.094Z,98395.75
2022-09-27T18:00:23.133Z,98393.53
2022-09-27T18:02:50.840Z,98395.31
2022-09-27T18:05:21.397Z,98400.03
2022-09-27T18:07:49.495Z,98395.16
2022-09-27T18:10:18.181Z,98405.56
2022-09-27T18:12:45.869Z,98393.13
2022-09-27T18:15:13.533Z,98395.63
2022-09-27T18:17:41.180Z,98400.66
2022-09-27T18:20:10.780Z,98403.53
2022-09-27T18:22:39.207Z,98397.56
2022-09-27T18:25:07.238Z,98408.25
2022-09-27T18:27:35.109Z,98401.94
2022-09-27T18:30:03.659Z,98412.69
2022-09-27T18:32:31.373Z,98407.63
2022-09-27T18:34:58.889Z,98409.91
2022-09-27T18:37:27.371Z,98417.97
2022-09-27T18:39:55.864Z,98414.31
2022-09-27T18:42:23.474Z,98410.03
2022-09-27T18:44:51.581Z,98414.75
2022-09-27T18:47:19.278Z,98414.03
2022-09-27T18:49:46.803Z,98412.81
2022-09-27T18:52:14.404Z,98413.09
2022-09-27T18:54:42.237Z,98417.66
2022-09-27T18:57:09.852Z,98418.91
2022-09-27T18:59:37.971Z,98416.56
2022-09-27T19:02:05.657Z,98419.22
2022-09-27T19:04:33.278Z,98411.06
2022-09-27T19:07:00.977Z,98423.00
2022-09-27T19:09:28.838Z,98418.78
2022-09-27T19:11:56.570Z,98424.75
2022-09-27T19:14:24.297Z,98416.38
2022-09-27T19:16:51.840Z,98415.28
2022-09-27T19:19:20.425Z,98411.13
2022-09-27T19:21:49.069Z,98410.22
2022-09-27T19:24:16.924Z,98409.75
2022-09-27T19:26:44.793Z,98412.91
2022-09-27T19:29:13.426Z,98412.91
2022-09-27T19:31:42.462Z,98414.31
2022-09-27T19:34:11.490Z,98410.03
2022-09-27T19:36:39.113Z,98405.78
2022-09-27T19:39:06.832Z,98410.19
2022-09-27T19:41:34.552Z,98414.16
2022-09-27T19:44:02.270Z,98420.66
2022-09-27T19:46:29.894Z,98416.06
2022-09-27T19:48:57.917Z,98415.78
2022-09-27T19:51:27.791Z,98421.59
2022-09-27T19:53:55.492Z,98419.22
2022-09-27T19:56:24.335Z,98416.06
2022-09-27T19:58:52.395Z,98413.06
2022-09-27T20:01:22.688Z,98416.84
2022-09-27T20:03:53.606Z,98420.78
2022-09-27T20:06:22.518Z,98419.34
2022-09-27T20:08:50.222Z,98424.09
2022-09-27T20:11:23.176Z,98421.72
2022-09-27T20:13:53.564Z,98424.88
2022-09-27T20:16:23.989Z,98427.84
2022-09-27T20:18:54.354Z,98428.31
2022-09-27T20:21:24.591Z,98425.66
2022-09-27T20:23:54.488Z,98427.69
2022-09-27T20:26:24.631Z,98424.03
2022-09-27T20:28:57.413Z,98428.28
2022-09-27T20:31:29.310Z,98426.53
2022-09-27T20:33:57.272Z,98425.78
2022-09-27T20:36:33.757Z,98431.44
2022-09-27T20:39:03.988Z,98428.28
2022-09-27T20:41:34.428Z,98431.44
2022-09-27T20:44:05.879Z,98436.00
2022-09-27T20:46:35.492Z,98430.19
2022-09-27T20:49:06.138Z,98439.19
2022-09-27T20:51:35.328Z,98432.88
2022-09-27T20:54:04.668Z,98425.47
2022-09-27T20:56:38.293Z,98440.44
2022-09-27T20:59:18.203Z,98412.22
2022-09-27T21:01:48.063Z,98430.66
2022-09-27T21:04:17.589Z,98446.09
2022-09-27T21:06:46.441Z,98444.06
2022-09-27T21:09:21.396Z,98442.50
2022-09-27T21:11:52.253Z,98445.97
2022-09-27T21:14:20.120Z,98448.81
2022-09-27T21:16:47.594Z,98441.91
2022-09-27T21:19:15.179Z,98437.66
2022-09-27T21:21:42.886Z,98450.13
2022-09-27T21:24:10.741Z,98451.06
2022-09-27T21:26:38.226Z,98453.75
2022-09-27T21:29:07.978Z,98451.50
2022-09-27T21:31:36.447Z,98455.81
2022-09-27T21:34:05.681Z,98453.91
2022-09-27T21:36:35.893Z,98452.81
2022-09-27T21:39:05.070Z,98445.41
2022-09-27T21:41:32.677Z,98454.88
2022-09-27T21:44:03.540Z,98453.63
2022-09-27T21:46:31.052Z,98458.97
2022-09-27T21:49:02.098Z,98456.94
2022-09-27T21:51:37.277Z,98447.78
2022-09-27T21:54:08.034Z,98464.03
2022-09-27T21:56:38.611Z,98460.09
2022-09-27T21:59:07.723Z,98455.38
2022-09-27T22:01:35.894Z,98461.50
2022-09-27T22:04:06.736Z,98465.59
2022-09-27T22:06:37.026Z,98467.31
2022-09-27T22:09:08.340Z,98433.13
2022-09-27T22:11:40.052Z,98470.97
2022-09-27T22:14:08.175Z,98468.41
2022-09-27T22:16:36.212Z,98476.88
2022-09-27T22:19:04.505Z,98457.31
2022-09-27T22:21:35.737Z,98474.31
2022-09-27T22:24:11.712Z,98469.44
2022-09-27T22:26:40.858Z,98479.69
2022-09-27T22:29:08.912Z,98475.72
2022-09-27T22:31:37.690Z,98483.16
2022-09-27T22:34:07.817Z,98483.94
2022-09-27T22:36:35.768Z,98473.56
2022-09-27T22:39:03.666Z,98478.75
2022-09-27T22:41:31.236Z,98476.56
2022-09-27T22:43:58.593Z,98476.41
2022-09-27T22:46:26.214Z,98474.38
2022-09-27T22:48:53.919Z,98477.03
2022-09-27T22:51:21.278Z,98473.44
2022-09-27T22:53:48.815Z,98480.69
2022-09-27T22:56:20.747Z,98484.94
2022-09-27T22:58:49.504Z,98485.09
2022-09-27T23:01:22.672Z,98493.59
2022-09-27T23:03:52.092Z,98496.91
2022-09-27T23:06:21.944Z,98491.72
2022-09-27T23:08:50.150Z,98491.09
2022-09-27T23:11:21.049Z,98502.94
2022-09-27T23:13:50.578Z,98501.19
2022-09-27T23:16:20.657Z,98501.03
2022-09-27T23:18:48.223Z,98494.41
2022-09-27T23:21:16.420Z,98504.03
2022-09-27T23:23:46.368Z,98498.19
2022-09-27T23:26:16.420Z,98501.50
2022-09-27T23:28:44.565Z,98493.47
2022-09-27T23:31:17.196Z,98501.19
2022-09-27T23:33:48.692Z,98493.94
2022-09-27T23:36:22.927Z,98500.25
2022-09-27T23:38:50.678Z,98492.38
2022-09-27T23:41:18.550Z,98505.78
2022-09-27T23:43:46.709Z,98508.00
2022-09-27T23:46:14.923Z,98512.56
2022-09-27T23:48:42.944Z,98506.25
2022-09-27T23:51:12.041Z,98516.81
2022-09-27T23:53:40.285Z,98508.75
2022-09-27T23:56:18.446Z,98513.34
2022-09-27T23:58:46.861Z,98518.53
